Birmingham, United Kingdom

12:19 AM GMT on November 29, 2014 (GMT +0000)
I90579489 | Change Station
CLOSE
Current Station
Personal Weather Station
Location: Solihull, West Midlands
Elevation: 394 ft
Nearby Weather Stations

Elev 394 ft 52.41 °N, 1.76 °W | Updated 6 seconds ago

Light Rain
Light Rain Drizzle
50.5 °F
Feels Like 50.5 °F
N
0.0
Wind Variable Wind from NNE
Gusts 2.3 mph

Today
High -- | Low -- °F
--% Chance of Precip.
Yesterday
High -- | Low -- °F
Precip. -- in
7:51 AM 3:58 PM
Waxing Crescent, 45% visible
Pressure 29.77 in
Visibility 2.2 miles
Clouds Mostly Cloudy 700 ft
Mostly Cloudy 1000 ft
Dew Point 49 °F
Humidity 93%
Rainfall 0.00 in
Snow Depth Not available.
UV 0 out of 12
Pollen Not available.
Air Quality Not available.
Flu Activity Not available.
METAR EGBB 282350Z 06005KT 3500 -RADZ BKN007 BKN010 10/09 Q1008 REDZ

More Conditions Fewer Conditions

Pressure 29.77 in
Visibility 2.2 miles
Clouds Mostly Cloudy 700 ft
Mostly Cloudy 1000 ft
Dew Point 49 °F
Humidity 93%
Rainfall 0.00 in
Snow Depth Not available.
UV 0 out of 12
Pollen Not available.
Air Quality Not available.
Flu Activity Not available.
METAR EGBB 282350Z 06005KT 3500 -RADZ BKN007 BKN010 10/09 Q1008 REDZ

More Conditions Fewer Conditions

10-Day Weather Forecast

Almanac

Astronomy

Nov. 29, 2014 Rise Set
Actual Time
Civil Twilight
Nautical Twilight
Astronomical Twilight
Moon
Length of Visible Light
Length of Day
Tomorrow will be .
, % of the Moon is Illuminated

Today's Extremes

Country Highs Country Lows

Community

WunderPhotos

Upload Photos

1,774,343 photos uploaded!

WunderBlogs® & News

Nearby

Air Quality

  Air Quality AQ Index Pollutant
Not available.

Snow Depth

Station Depth Elevation

Earthquake Activity

City Distance Mag. Time & Date
Minimum magnitude displayed is 2.5.

Coastal Water Temperatures

Place Temperature

Nearby Weather Stations